sensor_id;sensor_type;location;lat;lon;timestamp;pressure;altitude;pressure_sealevel;temperature;humidity
78331;BME280;67594;53.854;-1.542;2023-03-01T00:02:00;101919.31;;;17.70;44.42
78331;BME280;67594;53.854;-1.542;2023-03-01T00:04:25;101919.44;;;17.68;44.46
78331;BME280;67594;53.854;-1.542;2023-03-01T00:06:50;101923.28;;;17.66;44.59
78331;BME280;67594;53.854;-1.542;2023-03-01T00:09:16;101925.03;;;17.76;44.11
78331;BME280;67594;53.854;-1.542;2023-03-01T00:11:42;101921.75;;;17.73;44.25
78331;BME280;67594;53.854;-1.542;2023-03-01T00:14:08;101923.63;;;17.72;44.13
78331;BME280;67594;53.854;-1.542;2023-03-01T00:16:38;101914.91;;;17.69;44.00
78331;BME280;67594;53.854;-1.542;2023-03-01T00:19:04;101920.16;;;17.70;43.93
78331;BME280;67594;53.854;-1.542;2023-03-01T00:21:30;101929.25;;;17.69;43.72
78331;BME280;67594;53.854;-1.542;2023-03-01T00:23:56;101927.66;;;17.67;44.10
78331;BME280;67594;53.854;-1.542;2023-03-01T00:26:23;101924.44;;;17.73;43.76
78331;BME280;67594;53.854;-1.542;2023-03-01T00:28:49;101925.72;;;17.69;44.02
78331;BME280;67594;53.854;-1.542;2023-03-01T00:31:17;101925.03;;;17.76;43.89
78331;BME280;67594;53.854;-1.542;2023-03-01T00:33:43;101924.94;;;17.78;44.10
78331;BME280;67594;53.854;-1.542;2023-03-01T00:36:10;101921.16;;;17.69;43.13
78331;BME280;67594;53.854;-1.542;2023-03-01T00:38:37;101923.63;;;17.61;43.38
78331;BME280;67594;53.854;-1.542;2023-03-01T00:41:07;101919.72;;;17.65;43.78
78331;BME280;67594;53.854;-1.542;2023-03-01T00:43:33;101920.94;;;17.61;43.56
78331;BME280;67594;53.854;-1.542;2023-03-01T00:46:01;101909.19;;;17.62;43.16
78331;BME280;67594;53.854;-1.542;2023-03-01T00:48:26;101913.47;;;17.65;43.34
78331;BME280;67594;53.854;-1.542;2023-03-01T00:50:51;101897.81;;;17.47;43.60
78331;BME280;67594;53.854;-1.542;2023-03-01T00:53:17;101904.66;;;17.51;43.73
78331;BME280;67594;53.854;-1.542;2023-03-01T00:55:42;101902.09;;;17.50;43.65
78331;BME280;67594;53.854;-1.542;2023-03-01T00:58:07;101898.16;;;17.54;43.57
78331;BME280;67594;53.854;-1.542;2023-03-01T01:00:32;101893.97;;;17.61;42.83
78331;BME280;67594;53.854;-1.542;2023-03-01T01:02:58;101889.44;;;17.61;43.93
78331;BME280;67594;53.854;-1.542;2023-03-01T01:05:23;101890.41;;;17.60;43.70
78331;BME280;67594;53.854;-1.542;2023-03-01T01:07:48;101889.44;;;17.61;43.84
78331;BME280;67594;53.854;-1.542;2023-03-01T01:10:14;101895.03;;;17.70;44.13
78331;BME280;67594;53.854;-1.542;2023-03-01T01:12:39;101893.28;;;17.80;43.30
78331;BME280;67594;53.854;-1.542;2023-03-01T01:15:05;101884.91;;;17.83;43.22
78331;BME280;67594;53.854;-1.542;2023-03-01T01:17:30;101891.16;;;17.83;43.50
78331;BME280;67594;53.854;-1.542;2023-03-01T01:19:55;101888.59;;;17.82;43.40
78331;BME280;67594;53.854;-1.542;2023-03-01T01:22:21;101874.72;;;17.86;43.34
78331;BME280;67594;53.854;-1.542;2023-03-01T01:24:46;101867.94;;;17.92;43.56
78331;BME280;67594;53.854;-1.542;2023-03-01T01:27:11;101868.19;;;17.89;42.92
78331;BME280;67594;53.854;-1.542;2023-03-01T01:29:36;101858.72;;;17.94;43.13
78331;BME280;67594;53.854;-1.542;2023-03-01T01:32:02;101857.59;;;17.97;42.77
78331;BME280;67594;53.854;-1.542;2023-03-01T01:34:27;101862.53;;;17.92;43.46
78331;BME280;67594;53.854;-1.542;2023-03-01T01:36:53;101855.03;;;17.95;43.01
78331;BME280;67594;53.854;-1.542;2023-03-01T01:39:18;101863.56;;;18.00;43.15
78331;BME280;67594;53.854;-1.542;2023-03-01T01:41:44;101860.16;;;17.98;43.23
78331;BME280;67594;53.854;-1.542;2023-03-01T01:44:22;101860.75;;;18.02;42.76
78331;BME280;67594;53.854;-1.542;2023-03-01T01:47:18;101857.06;;;18.03;42.58
78331;BME280;67594;53.854;-1.542;2023-03-01T01:49:56;101859.47;;;18.06;42.63
78331;BME280;67594;53.854;-1.542;2023-03-01T01:52:31;101850.81;;;18.02;42.56
78331;BME280;67594;53.854;-1.542;2023-03-01T01:55:03;101842.03;;;18.10;42.97
78331;BME280;67594;53.854;-1.542;2023-03-01T01:57:45;101842.91;;;18.10;42.34
78331;BME280;67594;53.854;-1.542;2023-03-01T02:00:23;101839.50;;;18.08;42.81
78331;BME280;67594;53.854;-1.542;2023-03-01T02:02:53;101838.38;;;18.11;43.07
78331;BME280;67594;53.854;-1.542;2023-03-01T02:05:34;101836.22;;;18.14;42.50
78331;BME280;67594;53.854;-1.542;2023-03-01T02:08:02;101837.81;;;18.17;42.14
78331;BME280;67594;53.854;-1.542;2023-03-01T02:10:28;101828.00;;;18.16;42.45
78331;BME280;67594;53.854;-1.542;2023-03-01T02:12:54;101828.72;;;18.18;42.66
78331;BME280;67594;53.854;-1.542;2023-03-01T02:15:20;101822.47;;;18.17;42.32
78331;BME280;67594;53.854;-1.542;2023-03-01T02:17:45;101808.25;;;18.15;42.65
78331;BME280;67594;53.854;-1.542;2023-03-01T02:22:48;101811.97;;;18.24;42.07
78331;BME280;67594;53.854;-1.542;2023-03-01T02:30:29;101806.72;;;18.23;42.18
78331;BME280;67594;53.854;-1.542;2023-03-01T02:32:57;101806.59;;;18.24;42.50
78331;BME280;67594;53.854;-1.542;2023-03-01T02:35:24;101803.19;;;18.22;42.59
78331;BME280;67594;53.854;-1.542;2023-03-01T02:37:49;101800.91;;;18.27;42.48
78331;BME280;67594;53.854;-1.542;2023-03-01T02:42:49;101798.47;;;18.24;41.92
78331;BME280;67594;53.854;-1.542;2023-03-01T02:45:15;101791.53;;;18.22;42.05
78331;BME280;67594;53.854;-1.542;2023-03-01T02:47:41;101795.78;;;18.24;42.02
78331;BME280;67594;53.854;-1.542;2023-03-01T02:53:04;101795.94;;;18.23;42.19
78331;BME280;67594;53.854;-1.542;2023-03-01T02:55:34;101792.09;;;18.25;42.24
78331;BME280;67594;53.854;-1.542;2023-03-01T02:58:02;101796.66;;;18.25;42.34
78331;BME280;67594;53.854;-1.542;2023-03-01T03:00:36;101795.50;;;18.27;42.13
78331;BME280;67594;53.854;-1.542;2023-03-01T03:03:03;101792.09;;;18.25;41.79
78331;BME280;67594;53.854;-1.542;2023-03-01T03:05:30;101797.63;;;18.24;42.23
78331;BME280;67594;53.854;-1.542;2023-03-01T03:07:57;101794.09;;;18.23;41.56
78331;BME280;67594;53.854;-1.542;2023-03-01T03:10:25;101782.72;;;18.20;42.07
78331;BME280;67594;53.854;-1.542;2023-03-01T03:12:56;101786.13;;;18.22;42.23
78331;BME280;67594;53.854;-1.542;2023-03-01T03:15:22;101783.97;;;18.15;41.94
78331;BME280;67594;53.854;-1.542;2023-03-01T03:17:49;101788.78;;;18.12;42.25
78331;BME280;67594;53.854;-1.542;2023-03-01T03:20:16;101782.13;;;18.16;41.81
78331;BME280;67594;53.854;-1.542;2023-03-01T03:22:42;101778.44;;;18.17;41.71
78331;BME280;67594;53.854;-1.542;2023-03-01T03:25:08;101773.06;;;18.17;41.97
78331;BME280;67594;53.854;-1.542;2023-03-01T03:27:33;101771.19;;;18.17;41.66
78331;BME280;67594;53.854;-1.542;2023-03-01T03:29:58;101765.66;;;18.19;41.05
78331;BME280;67594;53.854;-1.542;2023-03-01T03:32:23;101769.75;;;18.13;41.70
78331;BME280;67594;53.854;-1.542;2023-03-01T03:34:49;101767.94;;;18.14;40.78
78331;BME280;67594;53.854;-1.542;2023-03-01T03:37:14;101765.34;;;18.12;41.05
78331;BME280;67594;53.854;-1.542;2023-03-01T03:39:39;101763.94;;;18.08;41.30
78331;BME280;67594;53.854;-1.542;2023-03-01T03:42:05;101761.78;;;18.12;40.98
78331;BME280;67594;53.854;-1.542;2023-03-01T03:44:30;101752.28;;;18.08;41.09
78331;BME280;67594;53.854;-1.542;2023-03-01T03:46:55;101755.69;;;18.10;41.30
78331;BME280;67594;53.854;-1.542;2023-03-01T03:49:20;101754.81;;;18.09;41.37
78331;BME280;67594;53.854;-1.542;2023-03-01T03:51:46;101751.00;;;18.12;41.07
78331;BME280;67594;53.854;-1.542;2023-03-01T03:54:11;101752.97;;;18.10;40.78
78331;BME280;67594;53.854;-1.542;2023-03-01T03:56:36;101754.56;;;18.12;40.89
78331;BME280;67594;53.854;-1.542;2023-03-01T03:59:02;101762.06;;;18.09;40.79
78331;BME280;67594;53.854;-1.542;2023-03-01T04:01:27;101751.69;;;18.04;40.43
78331;BME280;67594;53.854;-1.542;2023-03-01T04:03:52;101758.06;;;18.03;40.24
78331;BME280;67594;53.854;-1.542;2023-03-01T04:06:17;101766.91;;;18.05;40.77
78331;BME280;67594;53.854;-1.542;2023-03-01T04:08:43;101755.94;;;18.07;40.36
78331;BME280;67594;53.854;-1.542;2023-03-01T04:11:08;101753.25;;;18.07;40.09
78331;BME280;67594;53.854;-1.542;2023-03-01T04:13:34;101757.25;;;18.12;40.89
78331;BME280;67594;53.854;-1.542;2023-03-01T04:15:59;101756.66;;;18.09;40.02
78331;BME280;67594;53.854;-1.542;2023-03-01T04:18:24;101754.81;;;18.09;41.06
78331;BME280;67594;53.854;-1.542;2023-03-01T04:20:50;101754.56;;;18.12;40.61
78331;BME280;67594;53.854;-1.542;2023-03-01T04:23:17;101751.19;;;18.20;40.49
78331;BME280;67594;53.854;-1.542;2023-03-01T04:25:51;101740.94;;;18.24;40.01
78331;BME280;67594;53.854;-1.542;2023-03-01T04:28:16;101744.78;;;18.21;40.43
78331;BME280;67594;53.854;-1.542;2023-03-01T04:30:42;101743.78;;;18.22;40.31
78331;BME280;67594;53.854;-1.542;2023-03-01T04:33:09;101744.66;;;18.23;40.86
78331;BME280;67594;53.854;-1.542;2023-03-01T04:35:35;101742.81;;;18.23;40.59
78331;BME280;67594;53.854;-1.542;2023-03-01T04:38:01;101740.66;;;18.27;40.74
78331;BME280;67594;53.854;-1.542;2023-03-01T04:40:26;101733.53;;;18.16;40.59
78331;BME280;67594;53.854;-1.542;2023-03-01T04:42:52;101728.44;;;18.23;40.28
78331;BME280;67594;53.854;-1.542;2023-03-01T04:45:18;101735.13;;;18.28;40.73
78331;BME280;67594;53.854;-1.542;2023-03-01T04:47:45;101721.22;;;18.23;40.44
78331;BME280;67594;53.854;-1.542;2023-03-01T04:50:15;101715.66;;;18.25;40.94
78331;BME280;67594;53.854;-1.542;2023-03-01T04:52:41;101708.25;;;18.27;40.19
78331;BME280;67594;53.854;-1.542;2023-03-01T04:55:07;101717.78;;;18.21;41.00
78331;BME280;67594;53.854;-1.542;2023-03-01T04:57:33;101718.94;;;18.28;41.02
78331;BME280;67594;53.854;-1.542;2023-03-01T04:59:58;101723.09;;;18.32;41.18
78331;BME280;67594;53.854;-1.542;2023-03-01T05:02:23;101709.59;;;18.32;40.97
78331;BME280;67594;53.854;-1.542;2023-03-01T05:04:49;101715.53;;;18.36;40.46
78331;BME280;67594;53.854;-1.542;2023-03-01T05:07:14;101716.84;;;18.41;40.95
78331;BME280;67594;53.854;-1.542;2023-03-01T05:09:39;101712.72;;;18.37;40.38
78331;BME280;67594;53.854;-1.542;2023-03-01T05:12:05;101714.16;;;18.41;40.58
78331;BME280;67594;53.854;-1.542;2023-03-01T05:14:30;101706.75;;;18.43;40.02
78331;BME280;67594;53.854;-1.542;2023-03-01T05:16:55;101704.19;;;18.42;40.42
78331;BME280;67594;53.854;-1.542;2023-03-01T05:19:21;101697.78;;;18.43;40.63
78331;BME280;67594;53.854;-1.542;2023-03-01T05:21:46;101704.63;;;18.47;40.61
78331;BME280;67594;53.854;-1.542;2023-03-01T05:24:11;101700.09;;;18.47;40.37
78331;BME280;67594;53.854;-1.542;2023-03-01T05:26:36;101698.38;;;18.46;40.73
78331;BME280;67594;53.854;-1.542;2023-03-01T05:29:02;101698.97;;;18.50;40.08
78331;BME280;67594;53.854;-1.542;2023-03-01T05:31:27;101698.53;;;18.54;40.31
78331;BME280;67594;53.854;-1.542;2023-03-01T05:33:53;101698.53;;;18.54;40.18
78331;BME280;67594;53.854;-1.542;2023-03-01T05:36:18;101699.28;;;18.56;40.24
78331;BME280;67594;53.854;-1.542;2023-03-01T05:38:43;101696.56;;;18.56;40.33
78331;BME280;67594;53.854;-1.542;2023-03-01T05:41:14;101696.41;;;18.58;40.08
78331;BME280;67594;53.854;-1.542;2023-03-01T05:43:39;101683.78;;;18.58;40.20
78331;BME280;67594;53.854;-1.542;2023-03-01T05:46:04;101690.16;;;18.57;40.58
78331;BME280;67594;53.854;-1.542;2023-03-01T05:48:30;101691.88;;;18.58;40.19
78331;BME280;67594;53.854;-1.542;2023-03-01T05:50:59;101709.78;;;18.59;39.67
78331;BME280;67594;53.854;-1.542;2023-03-01T05:53:24;101706.53;;;18.56;40.21
78331;BME280;67594;53.854;-1.542;2023-03-01T05:55:49;101715.47;;;18.56;40.06
78331;BME280;67594;53.854;-1.542;2023-03-01T05:58:17;101718.88;;;18.58;40.15
78331;BME280;67594;53.854;-1.542;2023-03-01T06:00:44;101718.19;;;18.56;39.55
78331;BME280;67594;53.854;-1.542;2023-03-01T06:03:11;101723.88;;;18.53;40.16
78331;BME280;67594;53.854;-1.542;2023-03-01T06:05:37;101707.66;;;18.53;39.91
78331;BME280;67594;53.854;-1.542;2023-03-01T06:08:02;101705.09;;;18.52;39.21
78331;BME280;67594;53.854;-1.542;2023-03-01T06:10:29;101712.31;;;18.51;39.49
78331;BME280;67594;53.854;-1.542;2023-03-01T06:12:54;101716.69;;;18.43;40.16
78331;BME280;67594;53.854;-1.542;2023-03-01T06:15:20;101720.53;;;18.40;39.68
78331;BME280;67594;53.854;-1.542;2023-03-01T06:17:45;101717.69;;;18.42;40.03
78331;BME280;67594;53.854;-1.542;2023-03-01T06:20:17;101718.69;;;18.41;39.20
78331;BME280;67594;53.854;-1.542;2023-03-01T06:22:43;101711.56;;;18.40;40.10
78331;BME280;67594;53.854;-1.542;2023-03-01T06:25:11;101703.75;;;18.37;39.39
78331;BME280;67594;53.854;-1.542;2023-03-01T06:27:36;101688.97;;;18.31;39.61
78331;BME280;67594;53.854;-1.542;2023-03-01T06:30:02;101698.91;;;18.31;39.72
78331;BME280;67594;53.854;-1.542;2023-03-01T06:32:28;101699.34;;;18.26;39.67
78331;BME280;67594;53.854;-1.542;2023-03-01T06:34:53;101693.22;;;18.24;39.65
78331;BME280;67594;53.854;-1.542;2023-03-01T06:37:18;101706.28;;;18.19;39.51
78331;BME280;67594;53.854;-1.542;2023-03-01T06:39:44;101714.50;;;18.17;39.57
78331;BME280;67594;53.854;-1.542;2023-03-01T06:42:09;101703.00;;;18.15;39.40
78331;BME280;67594;53.854;-1.542;2023-03-01T06:44:34;101705.69;;;18.15;39.85
78331;BME280;67594;53.854;-1.542;2023-03-01T06:46:59;101702.13;;;18.15;39.86
78331;BME280;67594;53.854;-1.542;2023-03-01T06:49:25;101700.84;;;18.09;39.99
78331;BME280;67594;53.854;-1.542;2023-03-01T06:51:50;101703.97;;;18.05;40.48
78331;BME280;67594;53.854;-1.542;2023-03-01T06:54:15;101706.94;;;18.02;40.04
78331;BME280;67594;53.854;-1.542;2023-03-01T06:56:41;101705.22;;;18.01;39.84
78331;BME280;67594;53.854;-1.542;2023-03-01T06:59:06;101704.84;;;18.05;40.08
78331;BME280;67594;53.854;-1.542;2023-03-01T07:01:31;101705.38;;;17.99;40.73
78331;BME280;67594;53.854;-1.542;2023-03-01T07:03:57;101711.34;;;18.03;40.06
78331;BME280;67594;53.854;-1.542;2023-03-01T07:06:23;101710.78;;;17.99;40.35
78331;BME280;67594;53.854;-1.542;2023-03-01T07:08:49;101710.19;;;17.96;40.29
78331;BME280;67594;53.854;-1.542;2023-03-01T07:11:15;101701.56;;;18.02;40.07
78331;BME280;67594;53.854;-1.542;2023-03-01T07:13:41;101703.50;;;18.00;39.98
78331;BME280;67594;53.854;-1.542;2023-03-01T07:16:06;101714.47;;;17.98;40.15
78331;BME280;67594;53.854;-1.542;2023-03-01T07:18:32;101711.59;;;18.00;40.13
78331;BME280;67594;53.854;-1.542;2023-03-01T07:20:57;101699.72;;;18.02;40.18
78331;BME280;67594;53.854;-1.542;2023-03-01T07:23:22;101702.84;;;18.07;40.10
78331;BME280;67594;53.854;-1.542;2023-03-01T07:25:54;101702.84;;;18.07;40.60
78331;BME280;67594;53.854;-1.542;2023-03-01T07:28:20;101699.44;;;18.05;40.69
78331;BME280;67594;53.854;-1.542;2023-03-01T07:30:45;101709.09;;;18.08;40.84
78331;BME280;67594;53.854;-1.542;2023-03-01T07:33:10;101708.25;;;18.07;40.87
78331;BME280;67594;53.854;-1.542;2023-03-01T07:35:35;101712.06;;;18.14;41.08
78331;BME280;67594;53.854;-1.542;2023-03-01T07:38:01;101703.44;;;18.11;42.21
78331;BME280;67594;53.854;-1.542;2023-03-01T07:40:26;101705.97;;;18.12;41.80
78331;BME280;67594;53.854;-1.542;2023-03-01T07:42:58;101699.34;;;18.26;42.13
78331;BME280;67594;53.854;-1.542;2023-03-01T07:45:25;101701.75;;;18.29;41.65
78331;BME280;67594;53.854;-1.542;2023-03-01T07:47:51;101700.81;;;18.49;42.27
78331;BME280;67594;53.854;-1.542;2023-03-01T07:50:18;101694.97;;;18.54;41.77
78331;BME280;67594;53.854;-1.542;2023-03-01T07:52:46;101704.09;;;18.72;41.99
78331;BME280;67594;53.854;-1.542;2023-03-01T07:55:11;101687.88;;;18.91;39.41
78331;BME280;67594;53.854;-1.542;2023-03-01T07:57:37;101709.34;;;19.12;38.53
78331;BME280;67594;53.854;-1.542;2023-03-01T08:00:03;101698.78;;;19.28;39.15
78331;BME280;67594;53.854;-1.542;2023-03-01T08:02:28;101707.31;;;19.43;38.96
78331;BME280;67594;53.854;-1.542;2023-03-01T08:04:53;101707.53;;;19.59;39.00
78331;BME280;67594;53.854;-1.542;2023-03-01T08:07:19;101697.53;;;19.69;38.15
78331;BME280;67594;53.854;-1.542;2023-03-01T08:09:44;101708.16;;;19.80;37.71
78331;BME280;67594;53.854;-1.542;2023-03-01T08:12:09;101704.03;;;19.86;37.27
78331;BME280;67594;53.854;-1.542;2023-03-01T08:14:35;101707.16;;;19.91;37.38
78331;BME280;67594;53.854;-1.542;2023-03-01T08:17:00;101705.59;;;19.88;37.21
78331;BME280;67594;53.854;-1.542;2023-03-01T08:19:25;101702.84;;;19.98;37.44
78331;BME280;67594;53.854;-1.542;2023-03-01T08:21:51;101702.22;;;20.04;37.58
78331;BME280;67594;53.854;-1.542;2023-03-01T08:24:16;101705.03;;;20.12;37.42
78331;BME280;67594;53.854;-1.542;2023-03-01T08:26:41;101701.31;;;20.13;38.06
78331;BME280;67594;53.854;-1.542;2023-03-01T08:29:07;101701.78;;;20.08;37.51
78331;BME280;67594;53.854;-1.542;2023-03-01T08:31:35;101704.91;;;20.04;37.42
78331;BME280;67594;53.854;-1.542;2023-03-01T08:34:02;101710.50;;;20.02;37.44
78331;BME280;67594;53.854;-1.542;2023-03-01T08:36:31;101700.84;;;20.00;37.48
78331;BME280;67594;53.854;-1.542;2023-03-01T08:38:57;101702.69;;;19.99;37.12
78331;BME280;67594;53.854;-1.542;2023-03-01T08:41:23;101696.72;;;19.96;37.98
78331;BME280;67594;53.854;-1.542;2023-03-01T08:43:49;101699.88;;;19.91;37.53
78331;BME280;67594;53.854;-1.542;2023-03-01T08:46:14;101702.63;;;20.09;37.41
78331;BME280;67594;53.854;-1.542;2023-03-01T08:48:40;101709.59;;;20.39;37.50
78331;BME280;67594;53.854;-1.542;2023-03-01T08:51:16;101708.63;;;20.40;38.13
78331;BME280;67594;53.854;-1.542;2023-03-01T08:53:42;101712.00;;;20.42;39.45
78331;BME280;67594;53.854;-1.542;2023-03-01T08:56:08;101723.06;;;20.30;40.63
78331;BME280;67594;53.854;-1.542;2023-03-01T08:58:34;101720.81;;;20.26;41.18
78331;BME280;67594;53.854;-1.542;2023-03-01T09:01:00;101720.94;;;20.24;39.97
78331;BME280;67594;53.854;-1.542;2023-03-01T09:03:25;101718.09;;;20.26;39.61
78331;BME280;67594;53.854;-1.542;2023-03-01T09:05:51;101715.38;;;20.26;39.05
78331;BME280;67594;53.854;-1.542;2023-03-01T09:08:17;101706.13;;;20.19;38.15
78331;BME280;67594;53.854;-1.542;2023-03-01T09:10:43;101703.31;;;20.11;38.91
78331;BME280;67594;53.854;-1.542;2023-03-01T09:13:08;101707.03;;;20.10;37.91
78331;BME280;67594;53.854;-1.542;2023-03-01T09:15:34;101703.69;;;19.98;38.95
78331;BME280;67594;53.854;-1.542;2023-03-01T09:18:01;101709.16;;;19.89;39.11
78331;BME280;67594;53.854;-1.542;2023-03-01T09:20:26;101705.47;;;19.80;39.89
78331;BME280;67594;53.854;-1.542;2023-03-01T09:22:51;101702.22;;;19.76;40.88
78331;BME280;67594;53.854;-1.542;2023-03-01T09:25:17;101698.22;;;19.80;39.13
78331;BME280;67594;53.854;-1.542;2023-03-01T09:27:42;101696.44;;;19.89;38.41
78331;BME280;67594;53.854;-1.542;2023-03-01T09:30:08;101704.19;;;19.84;38.17
78331;BME280;67594;53.854;-1.542;2023-03-01T09:32:33;101702.81;;;19.70;38.19
78331;BME280;67594;53.854;-1.542;2023-03-01T09:34:59;101701.59;;;19.55;38.79
78331;BME280;67594;53.854;-1.542;2023-03-01T09:37:24;101698.06;;;19.45;39.14
78331;BME280;67594;53.854;-1.542;2023-03-01T09:39:49;101697.34;;;19.34;39.86
78331;BME280;67594;53.854;-1.542;2023-03-01T09:42:15;101698.63;;;19.30;39.95
78331;BME280;67594;53.854;-1.542;2023-03-01T09:44:49;101686.16;;;19.19;39.73
78331;BME280;67594;53.854;-1.542;2023-03-01T09:47:21;101691.13;;;19.14;40.09
78331;BME280;67594;53.854;-1.542;2023-03-01T09:50:01;101698.13;;;19.07;39.99
78331;BME280;67594;53.854;-1.542;2023-03-01T09:54:58;101683.34;;;19.01;39.91
78331;BME280;67594;53.854;-1.542;2023-03-01T09:57:41;101678.03;;;19.19;40.04
78331;BME280;67594;53.854;-1.542;2023-03-01T10:07:58;101647.97;;;20.76;36.79
78331;BME280;67594;53.854;-1.542;2023-03-01T10:10:43;101639.28;;;21.33;35.59
78331;BME280;67594;53.854;-1.542;2023-03-01T10:13:21;101638.97;;;21.70;35.03
78331;BME280;67594;53.854;-1.542;2023-03-01T10:15:52;101635.03;;;21.99;34.09
78331;BME280;67594;53.854;-1.542;2023-03-01T10:18:22;101628.22;;;21.94;34.49
78331;BME280;67594;53.854;-1.542;2023-03-01T10:23:16;101626.66;;;22.50;33.13
78331;BME280;67594;53.854;-1.542;2023-03-01T10:25:52;101625.91;;;22.24;33.73
78331;BME280;67594;53.854;-1.542;2023-03-01T10:31:25;101629.72;;;21.55;35.13
78331;BME280;67594;53.854;-1.542;2023-03-01T10:33:52;101644.00;;;21.31;34.96
78331;BME280;67594;53.854;-1.542;2023-03-01T10:36:17;101648.09;;;21.10;36.47
78331;BME280;67594;53.854;-1.542;2023-03-01T10:38:55;101647.38;;;21.08;36.76
78331;BME280;67594;53.854;-1.542;2023-03-01T10:41:22;101641.72;;;21.19;36.00
78331;BME280;67594;53.854;-1.542;2023-03-01T10:43:57;101639.91;;;21.27;35.81
78331;BME280;67594;53.854;-1.542;2023-03-01T10:46:34;101643.28;;;21.55;35.63
78331;BME280;67594;53.854;-1.542;2023-03-01T10:49:22;101641.28;;;21.91;34.97
78331;BME280;67594;53.854;-1.542;2023-03-01T10:51:52;101632.56;;;21.79;34.86
78331;BME280;67594;53.854;-1.542;2023-03-01T10:54:37;101635.84;;;21.57;35.87
78331;BME280;67594;53.854;-1.542;2023-03-01T10:57:04;101633.19;;;21.39;35.92
78331;BME280;67594;53.854;-1.542;2023-03-01T10:59:33;101631.41;;;21.22;35.89
78331;BME280;67594;53.854;-1.542;2023-03-01T11:04:29;101625.66;;;20.82;36.66
78331;BME280;67594;53.854;-1.542;2023-03-01T11:06:59;101626.31;;;20.58;37.53
78331;BME280;67594;53.854;-1.542;2023-03-01T11:09:25;101611.94;;;20.40;37.78
78331;BME280;67594;53.854;-1.542;2023-03-01T11:11:58;101612.06;;;20.21;37.82
78331;BME280;67594;53.854;-1.542;2023-03-01T11:14:33;101614.22;;;20.00;37.33
78331;BME280;67594;53.854;-1.542;2023-03-01T11:19:27;101622.28;;;19.55;37.64
78331;BME280;67594;53.854;-1.542;2023-03-01T11:27:31;101613.16;;;19.19;38.55
78331;BME280;67594;53.854;-1.542;2023-03-01T11:33:18;101613.09;;;18.92;39.21
78331;BME280;67594;53.854;-1.542;2023-03-01T11:35:54;101601.19;;;18.65;38.78
78331;BME280;67594;53.854;-1.542;2023-03-01T11:38:23;101601.72;;;18.69;40.04
78331;BME280;67594;53.854;-1.542;2023-03-01T11:41:08;101597.28;;;18.78;41.46
78331;BME280;67594;53.854;-1.542;2023-03-01T11:54:51;101555.41;;;19.47;40.85
78331;BME280;67594;53.854;-1.542;2023-03-01T11:57:48;101558.66;;;19.51;41.11
78331;BME280;67594;53.854;-1.542;2023-03-01T12:05:51;101569.13;;;18.90;41.13
78331;BME280;67594;53.854;-1.542;2023-03-01T12:08:37;101558.19;;;18.82;42.02
78331;BME280;67594;53.854;-1.542;2023-03-01T12:11:43;101556.91;;;18.95;41.32
78331;BME280;67594;53.854;-1.542;2023-03-01T12:17:26;101549.31;;;18.99;40.67
78331;BME280;67594;53.854;-1.542;2023-03-01T12:33:54;101538.53;;;19.26;41.58
78331;BME280;67594;53.854;-1.542;2023-03-01T12:50:48;101514.88;;;18.74;42.14
78331;BME280;67594;53.854;-1.542;2023-03-01T12:53:34;101507.22;;;18.96;41.88
78331;BME280;67594;53.854;-1.542;2023-03-01T12:56:08;101503.06;;;19.02;41.17
78331;BME280;67594;53.854;-1.542;2023-03-01T13:20:53;101457.53;;;19.79;38.19
78331;BME280;67594;53.854;-1.542;2023-03-01T13:31:00;101440.78;;;20.01;37.62
78331;BME280;67594;53.854;-1.542;2023-03-01T13:33:39;101441.66;;;20.02;37.86
78331;BME280;67594;53.854;-1.542;2023-03-01T13:36:07;101435.66;;;20.16;37.56
78331;BME280;67594;53.854;-1.542;2023-03-01T13:41:04;101418.03;;;20.29;36.90
78331;BME280;67594;53.854;-1.542;2023-03-01T13:43:40;101410.75;;;20.30;36.14
78331;BME280;67594;53.854;-1.542;2023-03-01T13:46:16;101406.38;;;20.37;37.64
78331;BME280;67594;53.854;-1.542;2023-03-01T13:48:45;101402.63;;;20.30;35.91
78331;BME280;67594;53.854;-1.542;2023-03-01T13:51:12;101394.06;;;20.17;36.65
78331;BME280;67594;53.854;-1.542;2023-03-01T13:53:46;101383.31;;;20.07;36.79
78331;BME280;67594;53.854;-1.542;2023-03-01T13:56:16;101383.81;;;20.03;37.33
78331;BME280;67594;53.854;-1.542;2023-03-01T13:59:06;101374.78;;;19.94;37.68
78331;BME280;67594;53.854;-1.542;2023-03-01T14:01:40;101372.94;;;19.95;37.87
78331;BME280;67594;53.854;-1.542;2023-03-01T14:04:44;101370.47;;;19.84;37.02
78331;BME280;67594;53.854;-1.542;2023-03-01T14:07:23;101367.53;;;19.95;36.72
78331;BME280;67594;53.854;-1.542;2023-03-01T14:09:52;101373.94;;;19.94;37.41
78331;BME280;67594;53.854;-1.542;2023-03-01T14:15:06;101357.94;;;19.65;38.07
78331;BME280;67594;53.854;-1.542;2023-03-01T14:17:50;101360.16;;;19.61;37.87
78331;BME280;67594;53.854;-1.542;2023-03-01T14:20:32;101359.53;;;19.67;38.58
78331;BME280;67594;53.854;-1.542;2023-03-01T14:23:01;101351.50;;;19.84;37.81
78331;BME280;67594;53.854;-1.542;2023-03-01T14:25:28;101351.59;;;19.92;37.68
78331;BME280;67594;53.854;-1.542;2023-03-01T14:28:00;101347.63;;;19.86;36.88
78331;BME280;67594;53.854;-1.542;2023-03-01T14:30:37;101339.84;;;19.83;37.44
78331;BME280;67594;53.854;-1.542;2023-03-01T14:33:06;101344.25;;;19.84;37.72
78331;BME280;67594;53.854;-1.542;2023-03-01T14:35:55;101340.16;;;19.80;37.57
78331;BME280;67594;53.854;-1.542;2023-03-01T14:38:23;101329.56;;;19.87;38.06
78331;BME280;67594;53.854;-1.542;2023-03-01T14:40:51;101333.97;;;19.88;37.82
78331;BME280;67594;53.854;-1.542;2023-03-01T14:43:22;101338.47;;;19.79;39.07
78331;BME280;67594;53.854;-1.542;2023-03-01T14:45:49;101333.50;;;19.74;39.05
78331;BME280;67594;53.854;-1.542;2023-03-01T14:48:15;101321.03;;;19.73;39.17
78331;BME280;67594;53.854;-1.542;2023-03-01T14:50:42;101315.59;;;19.73;39.04
78331;BME280;67594;53.854;-1.542;2023-03-01T14:53:21;101317.47;;;19.73;38.83